Time;durP1;ratioP1;P1;durP2;ratioP2;P2;SDS_P1;SDS_P2;PMS_P1;PMS_P2;Temp;Humidity;BMP_temperature;BMP_pressure;BME280_temperature;BME280_humidity;BME280_pressure;Samples;Min_cycle;Max_cycle;Signal;HPM_P1;HPM_P2
2022/07/21 00:00:36;;;;;;;7.30;6.30;;;;;;;26.21;49.97;101711.84;5074750;28;20027;-67
2022/07/21 00:03:04;;;;;;;7.63;6.78;;;;;;;26.19;49.92;101705.84;5093316;28;20016;-65
2022/07/21 00:05:30;;;;;;;7.88;6.10;;;;;;;26.19;49.85;101707.69;5093733;28;20463;-65
2022/07/21 00:07:55;;;;;;;8.00;6.82;;;;;;;26.19;49.92;101705.84;5092664;28;20030;-65
2022/07/21 00:10:23;;;;;;;7.22;6.22;;;;;;;26.19;49.93;101713.03;5093551;28;20479;-68
2022/07/21 00:12:49;;;;;;;7.35;6.05;;;;;;;26.18;49.79;101720.19;5093393;28;20048;-65
2022/07/21 00:15:16;;;;;;;6.70;5.82;;;;;;;26.17;49.83;101710.50;5092392;28;20081;-67
2022/07/21 00:17:42;;;;;;;6.70;5.68;;;;;;;26.17;49.71;101704.31;5093447;28;20024;-66
2022/07/21 00:20:09;;;;;;;7.10;6.18;;;;;;;26.16;49.83;101692.78;5093152;28;20077;-67
2022/07/21 00:22:35;;;;;;;6.75;5.90;;;;;;;26.16;49.72;101702.66;5092714;28;20027;-67
2022/07/21 00:25:04;;;;;;;7.95;6.03;;;;;;;26.15;49.41;101701.81;5093128;28;20031;-66
2022/07/21 00:27:30;;;;;;;7.13;6.10;;;;;;;26.15;49.69;101715.19;5093248;28;20020;-67
2022/07/21 00:29:57;;;;;;;7.75;6.00;;;;;;;26.14;49.75;101713.50;5092196;28;20028;-67
2022/07/21 00:32:23;;;;;;;6.85;6.00;;;;;;;26.14;49.38;101712.66;5093232;28;20056;-67
2022/07/21 00:34:48;;;;;;;6.73;6.03;;;;;;;26.13;49.52;101703.78;5093417;28;20048;-67
2022/07/21 00:37:13;;;;;;;7.90;6.37;;;;;;;26.13;49.81;101713.66;5092136;28;20276;-67
2022/07/21 00:39:39;;;;;;;7.73;5.73;;;;;;;26.12;49.63;101718.16;5093238;28;20272;-67
2022/07/21 00:42:07;;;;;;;7.15;5.65;;;;;;;26.11;49.67;101716.47;5092892;28;20631;-66
2022/07/21 00:44:32;;;;;;;7.78;6.05;;;;;;;26.10;49.85;101720.13;5092251;28;20484;-67
2022/07/21 00:46:59;;;;;;;7.60;6.30;;;;;;;26.11;49.54;101712.97;5092854;28;20028;-67
2022/07/21 00:49:25;;;;;;;8.23;6.28;;;;;;;26.09;49.52;101705.13;5092393;28;20032;-67
2022/07/21 00:51:50;;;;;;;7.63;6.22;;;;;;;26.08;49.68;101705.28;5092479;28;20050;-67
2022/07/21 00:54:19;;;;;;;7.68;6.13;;;;;;;26.08;49.79;101708.78;5092479;28;20020;-67
2022/07/21 00:56:45;;;;;;;6.78;5.72;;;;;;;26.08;49.66;101713.28;5092315;28;20032;-67
2022/07/21 00:59:11;;;;;;;7.40;6.20;;;;;;;26.08;49.90;101714.13;5092554;28;20042;-67
2022/07/21 01:01:42;;;;;;;7.82;6.47;;;;;;;26.05;49.44;101703.75;5092764;28;20459;-67
2022/07/21 01:04:07;;;;;;;7.65;6.00;;;;;;;26.05;49.85;101696.56;5091934;28;20016;-69
2022/07/21 01:06:33;;;;;;;6.93;5.73;;;;;;;26.05;49.65;101695.72;5092891;28;20464;-67
2022/07/21 01:08:58;;;;;;;7.82;5.70;;;;;;;26.05;49.52;101690.41;5092448;28;20291;-67
2022/07/21 01:11:24;;;;;;;7.55;6.18;;;;;;;26.05;49.43;101693.91;5091849;28;20032;-67
2022/07/21 01:13:50;;;;;;;10.05;5.57;;;;;;;26.03;49.80;101681.72;5092731;28;20024;-67
2022/07/21 01:16:16;;;;;;;6.50;5.38;;;;;;;26.02;49.83;101682.69;5092630;28;20073;-67
2022/07/21 01:18:41;;;;;;;7.53;5.63;;;;;;;26.01;49.65;101681.00;5092145;28;20464;-67
2022/07/21 01:21:31;;;;;;;6.22;5.50;;;;;;;26.01;49.50;101675.66;5092470;28;20368;-67
2022/07/21 01:23:56;;;;;;;7.22;6.00;;;;;;;26.00;49.61;101680.19;5092516;28;20024;-67
2022/07/21 01:26:22;;;;;;;7.10;5.82;;;;;;;26.00;49.52;101674.00;5091792;28;20043;-67
2022/07/21 01:28:47;;;;;;;6.45;5.50;;;;;;;25.99;49.45;101677.66;5092838;28;20020;-66
2022/07/21 01:31:12;;;;;;;6.90;5.53;;;;;;;25.99;49.45;101675.81;5092339;28;20081;-65
2022/07/21 01:33:38;;;;;;;7.83;5.80;;;;;;;25.98;49.99;101684.84;5091973;28;20144;-66
2022/07/21 01:36:03;;;;;;;6.95;5.78;;;;;;;25.97;49.52;101688.50;5092256;28;20276;-66
2022/07/21 01:41:31;;;;;;;7.00;5.82;;;;;;;25.97;49.71;101691.16;5092327;28;20042;-66
2022/07/21 01:43:57;;;;;;;;;;;;;;;25.96;49.97;101673.47;5092688;28;20032;-65
2022/07/21 01:46:23;;;;;;;6.75;5.55;;;;;;;25.97;49.55;101680.50;5091773;28;20359;-65
2022/07/21 01:48:48;;;;;;;7.85;5.95;;;;;;;25.95;49.68;101687.78;5092485;28;20028;-65
2022/07/21 01:51:14;;;;;;;6.63;5.50;;;;;;;25.94;49.67;101685.28;5091984;28;20036;-65
2022/07/21 01:53:39;;;;;;;7.30;5.50;;;;;;;25.94;49.96;101683.44;5091843;28;20297;-65
2022/07/21 01:56:06;;;;;;;6.80;5.63;;;;;;;25.94;49.85;101686.13;5092039;28;20328;-65
2022/07/21 01:58:34;;;;;;;7.00;5.40;;;;;;;25.92;49.79;101681.94;5092358;28;20024;-65
2022/07/21 02:01:00;;;;;;;6.75;5.38;;;;;;;25.91;49.69;101685.59;5091277;28;20056;-65
2022/07/21 02:03:25;;;;;;;6.13;5.20;;;;;;;25.91;49.86;101682.94;5092129;28;20039;-65
2022/07/21 02:05:51;;;;;;;7.13;5.72;;;;;;;25.92;49.61;101677.44;5095570;28;20032;-65
2022/07/21 02:08:16;;;;;;;8.65;5.95;;;;;;;25.90;49.80;101674.09;5095015;28;20031;-65
2022/07/21 02:10:44;;;;;;;7.53;5.80;;;;;;;25.88;50.15;101674.25;5095991;28;20069;-65
2022/07/21 02:13:09;;;;;;;7.90;5.57;;;;;;;25.88;49.63;101679.59;5095459;28;20281;-65
2022/07/21 02:15:37;;;;;;;6.67;5.30;;;;;;;25.89;50.20;101683.91;5095178;28;20020;-65
2022/07/21 02:18:02;;;;;;;7.07;5.95;;;;;;;25.89;49.97;101675.06;5095504;28;20326;-66
2022/07/21 02:20:30;;;;;;;7.15;5.38;;;;;;;25.88;49.84;101674.25;5095666;28;20024;-66
2022/07/21 02:22:55;;;;;;;7.38;5.90;;;;;;;25.87;49.65;101675.22;5094739;28;20028;-66
2022/07/21 02:25:21;;;;;;;6.80;5.43;;;;;;;25.87;50.00;101675.22;5095578;28;20024;-65
2022/07/21 02:27:47;;;;;;;6.20;5.50;;;;;;;25.87;49.90;101669.06;5095613;28;20040;-65
2022/07/21 02:30:13;;;;;;;6.82;5.68;;;;;;;25.87;49.78;101664.53;5094505;28;20028;-66
2022/07/21 02:32:38;;;;;;;6.75;5.53;;;;;;;25.85;50.05;101666.53;5095696;28;20038;-66
2022/07/21 02:35:04;;;;;;;7.13;5.30;;;;;;;25.86;49.77;101665.53;5094447;28;20024;-65
2022/07/21 02:37:30;;;;;;;6.18;5.40;;;;;;;25.86;50.10;101667.38;5095292;28;20048;-66
2022/07/21 02:39:55;;;;;;;6.78;5.15;;;;;;;25.84;49.92;101664.03;5095269;28;20117;-66
2022/07/21 02:42:21;;;;;;;6.93;5.38;;;;;;;25.84;50.05;101667.53;5094753;28;20468;-66
2022/07/21 02:44:46;;;;;;;7.27;5.37;;;;;;;25.84;49.86;101672.88;5095364;28;20364;-66
2022/07/21 02:47:11;;;;;;;7.53;5.40;;;;;;;25.84;49.70;101662.19;5095179;28;20271;-65
2022/07/21 02:49:37;;;;;;;6.10;5.07;;;;;;;25.85;49.94;101660.34;5094253;28;20766;-66
2022/07/21 02:52:02;;;;;;;6.72;5.20;;;;;;;25.84;50.03;101656.84;5094967;28;20085;-66
2022/07/21 02:54:27;;;;;;;6.80;5.28;;;;;;;25.82;49.93;101656.19;5095256;28;20028;-65
2022/07/21 02:56:53;;;;;;;7.30;5.83;;;;;;;25.84;49.82;101666.69;5094414;28;20051;-65
2022/07/21 02:59:18;;;;;;;6.93;5.77;;;;;;;25.83;49.95;101665.00;5094615;28;20360;-65
2022/07/21 03:01:43;;;;;;;7.07;5.53;;;;;;;25.83;49.81;101659.66;5095138;28;20281;-66
2022/07/21 03:04:08;;;;;;;7.40;5.55;;;;;;;25.83;49.95;101660.50;5093716;28;20460;-65
2022/07/21 03:06:34;;;;;;;7.23;5.60;;;;;;;25.84;50.00;101669.38;5095008;28;20028;-66
2022/07/21 03:08:59;;;;;;;6.90;5.57;;;;;;;25.83;50.30;101665.00;5094475;28;20339;-66
2022/07/21 03:11:25;;;;;;;7.63;5.78;;;;;;;25.82;50.18;101668.66;5093817;28;20031;-66
2022/07/21 03:13:50;;;;;;;7.72;5.50;;;;;;;25.81;49.68;101657.16;5094669;28;20457;-65
2022/07/21 03:16:16;;;;;;;7.18;5.60;;;;;;;25.82;49.88;101652.66;5093184;28;20122;-65
2022/07/21 03:18:41;;;;;;;6.18;5.40;;;;;;;25.81;49.67;101654.47;5093803;28;20149;-66
2022/07/21 03:21:07;;;;;;;7.10;5.50;;;;;;;25.81;50.07;101646.47;5094149;28;20492;-66
2022/07/21 03:23:33;;;;;;;7.78;5.40;;;;;;;25.81;49.88;101651.81;5094689;28;20050;-66
2022/07/21 03:25:58;;;;;;;6.50;5.20;;;;;;;25.80;49.95;101643.97;5093563;28;20059;-66
2022/07/21 03:28:24;;;;;;;6.15;5.05;;;;;;;25.80;50.08;101655.50;5094906;28;20052;-66
2022/07/21 03:30:49;;;;;;;6.75;5.03;;;;;;;25.79;49.64;101663.66;5094407;28;20471;-66
2022/07/21 03:33:14;;;;;;;6.70;5.45;;;;;;;25.80;49.65;101651.97;5093228;28;20028;-65
2022/07/21 03:35:42;;;;;;;6.87;5.60;;;;;;;25.81;50.00;101656.31;5094199;28;20028;-65
2022/07/21 03:38:07;;;;;;;6.22;4.95;;;;;;;25.79;49.50;101653.81;5094102;28;20355;-65
2022/07/21 03:40:36;;;;;;;6.15;5.00;;;;;;;25.79;49.99;101661.81;5093429;28;20165;-66
2022/07/21 03:43:03;;;;;;;7.13;5.85;;;;;;;25.79;49.96;101661.81;5093928;28;20038;-65
2022/07/21 03:45:30;;;;;;;8.40;5.13;;;;;;;25.80;49.95;101659.97;5093377;28;20496;-66
2022/07/21 03:47:56;;;;;;;7.47;5.60;;;;;;;25.78;49.70;101657.47;5093733;28;20028;-66
2022/07/21 03:50:22;;;;;;;6.00;5.05;;;;;;;25.79;49.97;101663.66;5094085;28;20077;-65
2022/07/21 03:52:47;;;;;;;7.18;5.45;;;;;;;25.78;50.04;101654.78;5093204;28;20028;-66
2022/07/21 03:55:20;;;;;;;6.80;5.22;;;;;;;25.79;49.90;101666.34;5093759;28;20425;-66
2022/07/21 03:57:51;;;;;;;7.22;5.57;;;;;;;25.78;49.71;101668.16;5093897;28;20486;-65
2022/07/21 04:00:29;;;;;;;7.32;5.57;;;;;;;25.78;49.64;101665.47;5092688;28;20115;-66
2022/07/21 04:02:55;;;;;;;6.50;5.43;;;;;;;25.78;50.01;101664.66;5093325;28;20467;-66
2022/07/21 04:05:21;;;;;;;6.30;5.25;;;;;;;25.78;50.02;101676.16;5093893;28;20036;-66
2022/07/21 04:07:48;;;;;;;6.75;4.97;;;;;;;25.77;49.90;101677.16;5092924;28;20055;-65
2022/07/21 04:10:16;;;;;;;7.78;5.40;;;;;;;25.77;50.17;101682.50;5093293;28;20028;-65
2022/07/21 04:12:41;;;;;;;6.82;5.40;;;;;;;25.78;49.98;101680.66;5093065;28;20475;-65
2022/07/21 04:15:08;;;;;;;6.82;5.22;;;;;;;25.77;50.26;101684.31;5092287;28;20118;-66
2022/07/21 04:17:34;;;;;;;6.07;5.07;;;;;;;25.76;50.31;101685.34;5092442;28;20396;-65
2022/07/21 04:19:59;;;;;;;6.22;5.20;;;;;;;25.76;50.37;101688.00;5093326;28;20107;-65
2022/07/21 04:22:25;;;;;;;6.15;4.78;;;;;;;25.76;50.02;101677.31;5092694;28;20099;-66
2022/07/21 04:24:50;;;;;;;6.97;5.25;;;;;;;25.76;50.14;101678.16;5093363;28;20052;-65
2022/07/21 04:27:15;;;;;;;6.00;4.72;;;;;;;25.77;50.34;101670.97;5092600;28;20020;-67
2022/07/21 04:29:41;;;;;;;5.60;4.63;;;;;;;25.78;50.16;101678.00;5092423;28;20085;-66
2022/07/21 04:32:09;;;;;;;6.25;4.63;;;;;;;25.75;50.06;101667.63;5092759;28;20062;-66
2022/07/21 04:34:34;;;;;;;5.95;4.75;;;;;;;25.76;49.92;101674.66;5092376;28;20032;-66
2022/07/21 04:37:00;;;;;;;6.30;4.80;;;;;;;25.76;50.37;101672.81;5093060;28;20046;-66
2022/07/21 04:39:25;;;;;;;7.00;4.57;;;;;;;25.75;50.09;101668.44;5093104;28;20261;-66
2022/07/21 04:41:50;;;;;;;5.80;4.80;;;;;;;25.76;50.44;101666.66;5092474;28;20389;-66
2022/07/21 04:44:16;;;;;;;6.18;4.60;;;;;;;25.76;50.44;101674.66;5092745;28;20020;-66
2022/07/21 04:46:41;;;;;;;6.10;4.37;;;;;;;25.74;50.30;101665.94;5093176;28;20024;-66
2022/07/21 04:49:06;;;;;;;5.72;4.60;;;;;;;25.75;50.24;101671.13;5092065;28;20272;-67
2022/07/21 04:51:31;;;;;;;6.95;4.80;;;;;;;25.74;50.43;101672.13;5092964;28;20104;-66
2022/07/21 04:53:57;;;;;;;7.07;4.75;;;;;;;25.75;50.06;101675.63;5092794;28;20096;-66
2022/07/21 04:56:22;;;;;;;6.87;4.73;;;;;;;25.75;50.22;101675.63;5092307;28;20069;-66
2022/07/21 04:58:48;;;;;;;7.95;4.78;;;;;;;25.75;50.30;101675.63;5092786;28;20035;-67
2022/07/21 05:01:13;;;;;;;6.45;4.80;;;;;;;25.73;50.69;101678.47;5092808;28;20031;-65
2022/07/21 05:03:38;;;;;;;6.68;4.55;;;;;;;25.74;50.48;101676.63;5092293;28;20025;-65
2022/07/21 05:06:04;;;;;;;6.17;4.73;;;;;;;25.74;50.60;101687.28;5092791;28;20077;-65
2022/07/21 05:08:29;;;;;;;6.63;4.97;;;;;;;25.72;50.40;101676.78;5092976;28;20272;-65
2022/07/21 05:10:54;;;;;;;6.77;4.50;;;;;;;25.73;50.35;101675.78;5091630;28;20104;-66
2022/07/21 05:13:19;;;;;;;5.90;4.77;;;;;;;25.74;50.18;101681.97;5092503;28;20426;-66
2022/07/21 05:15:45;;;;;;;6.10;4.70;;;;;;;25.73;50.31;101681.13;5092697;28;20328;-65
2022/07/21 05:18:12;;;;;;;11.23;7.20;;;;;;;25.50;51.53;101675.44;5091742;28;20280;-64
2022/07/21 05:20:43;;;;;;;9.43;7.00;;;;;;;25.04;53.05;101674.63;5092753;28;20380;-65
2022/07/21 05:23:09;;;;;;;11.57;7.28;;;;;;;24.57;54.20;101668.44;5092409;28;20062;-64
2022/07/21 05:25:37;;;;;;;10.15;7.15;;;;;;;24.19;55.86;101672.06;5091817;28;20050;-63
2022/07/21 05:28:03;;;;;;;10.85;7.22;;;;;;;23.86;56.89;101674.25;5092152;28;20024;-67
2022/07/21 05:30:32;;;;;;;10.32;7.53;;;;;;;23.59;57.87;101673.16;5092504;28;20020;-64
2022/07/21 05:32:57;;;;;;;9.85;7.55;;;;;;;23.33;58.54;101675.50;5091629;28;20024;-67
2022/07/21 05:35:22;;;;;;;11.73;7.28;;;;;;;23.13;58.99;101671.97;5092719;28;20027;-64
2022/07/21 05:37:48;;;;;;;11.53;7.27;;;;;;;22.93;59.32;101666.59;5092183;28;20364;-64
2022/07/21 05:40:14;;;;;;;11.35;7.25;;;;;;;22.77;59.96;101667.13;5094620;28;20268;-63
2022/07/21 05:42:57;;;;;;;11.27;7.57;;;;;;;22.60;60.83;101665.94;5096447;28;20012;-64
2022/07/21 05:45:22;;;;;;;10.80;7.47;;;;;;;22.49;61.48;101666.03;5096009;28;20164;-63
2022/07/21 05:47:48;;;;;;;11.82;7.43;;;;;;;22.40;60.88;101666.88;5096341;28;20045;-63
2022/07/21 05:50:13;;;;;;;11.18;7.00;;;;;;;22.29;61.22;101659.78;5095814;28;20035;-63
2022/07/21 05:52:39;;;;;;;11.35;7.70;;;;;;;22.22;61.34;101661.28;5095532;28;20503;-63
2022/07/21 05:55:05;;;;;;;11.65;8.27;;;;;;;22.15;62.01;101660.13;5095845;28;20024;-62
2022/07/21 05:57:30;;;;;;;12.02;7.65;;;;;;;22.12;61.77;101665.72;5095900;28;20024;-64
2022/07/21 05:59:56;;;;;;;11.10;8.25;;;;;;;22.07;61.96;101671.41;5095360;28;20078;-62
2022/07/21 06:02:21;;;;;;;12.60;9.02;;;;;;;22.01;61.68;101679.88;5096185;28;20024;-62
2022/07/21 06:04:49;;;;;;;12.85;9.05;;;;;;;21.95;62.35;101667.97;5096077;28;20024;-63
2022/07/21 06:07:14;;;;;;;14.13;9.65;;;;;;;21.90;62.88;101668.38;5094958;28;20510;-63
2022/07/21 06:09:40;;;;;;;12.18;8.45;;;;;;;21.97;62.83;101679.31;5095809;28;20028;-65
2022/07/21 06:12:08;;;;;;;8.70;6.20;;;;;;;22.16;62.15;101669.75;5095501;28;20070;-70
2022/07/21 06:14:33;;;;;;;9.98;6.20;;;;;;;22.39;60.99;101668.66;5095296;28;20347;-64
2022/07/21 06:16:58;;;;;;;12.32;6.78;;;;;;;22.62;60.20;101660.50;5095680;28;20108;-64
2022/07/21 06:19:24;;;;;;;18.52;12.23;;;;;;;22.72;59.57;101665.88;5095743;28;20537;-63
2022/07/21 06:21:49;;;;;;;15.73;11.47;;;;;;;22.69;59.51;101659.00;5095095;28;20433;-63
2022/07/21 06:24:15;;;;;;;15.50;11.07;;;;;;;22.60;59.60;101663.28;5095393;28;20276;-63
2022/07/21 06:26:40;;;;;;;16.98;11.60;;;;;;;22.57;61.25;101660.06;5095794;28;20035;-64
2022/07/21 06:29:08;;;;;;;15.68;11.90;;;;;;;22.53;61.02;101659.50;5094684;28;20024;-64
2022/07/21 06:31:34;;;;;;;19.50;12.15;;;;;;;22.53;60.81;101663.97;5095419;28;20483;-63
2022/07/21 06:33:59;;;;;;;17.67;12.25;;;;;;;22.52;60.72;101662.28;5095204;28;20107;-63
2022/07/21 06:36:25;;;;;;;15.32;11.20;;;;;;;22.53;60.77;101662.16;5094703;28;20468;-63
2022/07/21 06:38:50;;;;;;;15.40;11.77;;;;;;;22.54;60.52;101652.34;5095222;28;20457;-62
2022/07/21 06:41:15;;;;;;;18.50;12.02;;;;;;;22.54;61.28;101665.63;5094399;28;20099;-64
2022/07/21 06:43:43;;;;;;;17.23;12.18;;;;;;;22.55;60.39;101664.69;5095350;28;20058;-63
2022/07/21 06:46:14;;;;;;;18.48;11.60;;;;;;;22.53;60.20;101671.94;5095031;28;20039;-64
2022/07/21 06:48:39;;;;;;;17.05;12.35;;;;;;;22.51;61.06;101673.88;5094446;28;20106;-64
2022/07/21 06:51:05;;;;;;;18.40;12.73;;;;;;;22.48;60.92;101675.00;5094454;28;20115;-62
2022/07/21 06:53:30;;;;;;;19.27;11.85;;;;;;;22.46;60.54;101675.13;5095091;28;20268;-62
2022/07/21 06:55:55;;;;;;;16.20;10.57;;;;;;;22.46;61.30;101682.25;5093956;28;20456;-63
2022/07/21 06:58:22;;;;;;;16.65;12.27;;;;;;;22.46;60.88;101679.59;5094967;28;20028;-62
2022/07/21 07:00:49;;;;;;;14.85;11.45;;;;;;;22.45;61.73;101684.06;5095071;28;20107;-63
2022/07/21 07:03:14;;;;;;;15.32;11.30;;;;;;;22.44;60.97;101695.66;5093753;28;20437;-62
2022/07/21 07:05:41;;;;;;;16.35;10.88;;;;;;;22.43;60.70;101696.66;5094548;28;20024;-64
2022/07/21 07:08:06;;;;;;;15.77;11.40;;;;;;;22.41;61.33;101703.91;5094356;28;20028;-64
2022/07/21 07:10:31;;;;;;;17.48;11.95;;;;;;;22.38;61.34;101704.19;5093981;28;20039;-65
2022/07/21 07:12:57;;;;;;;12.98;9.15;;;;;;;22.43;61.24;101701.09;5094188;28;20395;-68
2022/07/21 07:15:26;;;;;;;13.73;9.18;;;;;;;22.59;60.57;101701.47;5094839;28;20035;-63
2022/07/21 07:17:52;;;;;;;10.60;8.45;;;;;;;22.78;59.94;101695.38;5093698;28;20031;-65
2022/07/21 07:20:17;;;;;;;10.45;8.50;;;;;;;22.98;59.34;101703.41;5094255;28;20028;-66
2022/07/21 07:22:43;;;;;;;11.07;8.15;;;;;;;23.14;58.85;101698.44;5094387;28;20023;-65
2022/07/21 07:25:09;;;;;;;11.50;7.70;;;;;;;23.26;58.76;101693.84;5093402;28;20024;-66
2022/07/21 07:27:35;;;;;;;10.20;7.97;;;;;;;23.42;58.00;101703.09;5094577;28;20103;-64
2022/07/21 07:30:00;;;;;;;12.65;7.50;;;;;;;23.53;57.86;101695.81;5093968;28;20099;-68
2022/07/21 07:32:26;;;;;;;10.88;7.63;;;;;;;23.65;57.16;101701.00;5093544;28;20032;-64
2022/07/21 07:34:51;;;;;;;11.80;8.17;;;;;;;23.72;56.98;101689.66;5094449;28;20479;-67
2022/07/21 07:37:17;;;;;;;14.48;7.60;;;;;;;23.83;57.10;101698.44;5093799;28;20269;-65
2022/07/21 07:39:42;;;;;;;11.13;7.47;;;;;;;23.93;57.30;101703.81;5093643;28;20019;-67
2022/07/21 07:42:07;;;;;;;10.43;7.60;;;;;;;23.98;57.27;101704.22;5093925;28;20126;-67
2022/07/21 07:44:33;;;;;;;13.77;7.47;;;;;;;24.06;57.82;101701.69;5093340;28;20115;-65
2022/07/21 07:47:01;;;;;;;10.60;7.50;;;;;;;24.15;57.93;101698.16;5093648;28;20273;-67
2022/07/21 07:49:30;;;;;;;13.23;7.45;;;;;;;24.22;57.79;101698.41;5094033;28;20056;-68
2022/07/21 07:51:56;;;;;;;11.27;7.65;;;;;;;24.29;57.27;101704.00;5092709;28;20502;-69
2022/07/21 07:54:22;;;;;;;13.45;7.55;;;;;;;24.32;56.95;101696.53;5093870;28;20036;-66
2022/07/21 07:56:47;;;;;;;8.88;6.85;;;;;;;24.39;57.22;101699.50;5094026;28;20020;-65
2022/07/21 07:59:12;;;;;;;13.57;7.78;;;;;;;24.47;57.06;101699.59;5092978;28;20471;-69
2022/07/21 08:01:38;;;;;;;10.95;7.38;;;;;;;24.51;56.81;101700.97;5093211;28;20070;-65
2022/07/21 08:04:09;;;;;;;10.35;6.47;;;;;;;24.56;57.14;101701.41;5093551;28;20024;-66
2022/07/21 08:06:34;;;;;;;9.43;7.35;;;;;;;24.64;56.98;101703.31;5092962;28;20123;-68
2022/07/21 08:09:00;;;;;;;11.00;6.53;;;;;;;24.68;56.33;101696.72;5093617;28;20059;-71
2022/07/21 08:11:25;;;;;;;12.35;6.18;;;;;;;24.69;56.85;101706.41;5093300;28;20760;-70
2022/07/21 08:13:51;;;;;;;9.70;6.15;;;;;;;24.66;56.65;101703.19;5092912;28;20028;-75
2022/07/21 08:16:17;;;;;;;9.50;5.22;;;;;;;24.64;56.61;101698.00;5093353;28;20020;-67
2022/07/21 08:18:43;;;;;;;7.82;5.43;;;;;;;24.67;56.61;101700.38;5093538;28;20047;-69
2022/07/21 08:21:12;;;;;;;7.93;5.15;;;;;;;24.72;56.54;101706.13;5092285;28;20526;-68
2022/07/21 08:23:37;;;;;;;8.65;4.97;;;;;;;24.78;56.72;101700.19;5093541;28;20039;-67
2022/07/21 08:26:04;;;;;;;6.50;4.78;;;;;;;24.84;56.83;101711.25;5093237;28;20367;-68
2022/07/21 08:28:29;;;;;;;6.60;4.75;;;;;;;24.88;56.91;101702.81;5092725;28;20024;-67
2022/07/21 08:30:55;;;;;;;8.83;5.27;;;;;;;24.93;56.82;101705.84;5092994;28;20070;-67
2022/07/21 08:33:20;;;;;;;6.85;4.85;;;;;;;24.97;56.78;101707.22;5093205;28;20020;-68
2022/07/21 08:35:45;;;;;;;8.50;4.88;;;;;;;25.02;56.18;101703.28;5092380;28;20032;-64
2022/07/21 08:38:14;;;;;;;6.68;4.55;;;;;;;25.04;56.08;101704.81;5092007;28;20051;-68
2022/07/21 08:40:44;;;;;;;6.93;4.40;;;;;;;25.11;56.07;101710.38;5092935;28;20022;-69
2022/07/21 08:43:12;;;;;;;6.30;4.13;;;;;;;25.11;55.76;101703.22;5092995;28;20106;-66
2022/07/21 08:45:39;;;;;;;8.00;4.50;;;;;;;25.15;56.09;101706.41;5093105;28;20028;-67
2022/07/21 08:48:06;;;;;;;6.90;4.10;;;;;;;25.14;56.41;101708.25;5091986;28;20023;-69
2022/07/21 08:50:36;;;;;;;7.97;4.43;;;;;;;25.15;56.12;101709.06;5093023;28;20020;-66
2022/07/21 08:53:02;;;;;;;6.10;4.50;;;;;;;25.09;55.83;101707.03;5091547;28;20036;-66
2022/07/21 08:55:32;;;;;;;8.98;4.13;;;;;;;25.09;56.44;101715.88;5092295;28;20376;-64
2022/07/21 08:57:58;;;;;;;5.88;3.97;;;;;;;25.06;56.50;101712.66;5091981;28;20067;-66
2022/07/21 09:00:23;;;;;;;7.72;4.30;;;;;;;25.07;56.73;101717.00;5092940;28;20044;-63
2022/07/21 09:02:49;;;;;;;6.35;4.03;;;;;;;25.08;56.54;101716.84;5092279;28;20102;-63
2022/07/21 09:05:14;;;;;;;6.43;3.83;;;;;;;25.08;56.29;101708.84;5092670;28;20024;-63
2022/07/21 09:07:57;;;;;;;7.72;4.40;;;;;;;25.10;56.15;101711.34;5092741;28;20016;-63
2022/07/21 09:10:26;;;;;;;7.07;4.13;;;;;;;25.09;56.05;101715.88;5092129;28;20024;-63
2022/07/21 09:13:01;;;;;;;6.07;3.85;;;;;;;25.07;56.53;101707.19;5093053;28;20067;-66
2022/07/21 09:15:29;;;;;;;6.53;4.20;;;;;;;25.06;56.53;101716.16;5097403;28;20032;-66
2022/07/21 09:18:15;;;;;;;7.80;4.25;;;;;;;25.06;56.77;101715.34;5096176;28;20020;-64
2022/07/21 09:20:49;;;;;;;7.43;3.35;;;;;;;25.08;56.49;101713.34;5097052;28;20371;-66
2022/07/21 09:23:16;;;;;;;5.95;3.47;;;;;;;25.12;56.62;101720.91;5096007;28;20081;-66
2022/07/21 09:25:48;;;;;;;8.85;4.03;;;;;;;25.16;56.20;101722.25;5096879;28;20111;-66
2022/07/21 09:28:17;;;;;;;7.10;3.60;;;;;;;25.21;56.48;101724.47;5096725;28;20024;-66
2022/07/21 09:30:59;;;;;;;5.65;3.20;;;;;;;25.21;55.95;101728.97;5096184;28;20023;-69
2022/07/21 09:33:37;;;;;;;6.70;3.17;;;;;;;25.21;55.99;101731.66;5097231;28;20028;-67
2022/07/21 09:36:15;;;;;;;5.88;3.20;;;;;;;25.21;56.15;101729.81;5096449;28;20020;-67
2022/07/21 09:38:48;;;;;;;4.88;2.92;;;;;;;25.22;55.94;101736.00;5096229;28;20020;-66
2022/07/21 09:41:16;;;;;;;6.25;2.70;;;;;;;25.21;55.65;101729.81;5096531;28;20030;-67
2022/07/21 09:43:49;;;;;;;6.00;2.90;;;;;;;25.24;55.74;101731.34;5096800;28;20497;-67
2022/07/21 09:46:28;;;;;;;4.40;2.70;;;;;;;25.26;55.68;101740.91;5095639;28;20386;-68
2022/07/21 09:48:58;;;;;;;4.38;2.83;;;;;;;25.25;55.37;101733.03;5097155;28;20459;-67
2022/07/21 09:51:37;;;;;;;6.22;2.80;;;;;;;25.27;55.29;101734.56;5096126;28;20496;-66
2022/07/21 09:54:10;;;;;;;4.38;2.60;;;;;;;25.28;55.21;101738.09;5096378;28;20057;-68
2022/07/21 09:56:44;;;;;;;5.40;2.67;;;;;;;25.29;55.48;101739.78;5095570;28;20032;-66
2022/07/21 09:59:11;;;;;;;6.05;2.88;;;;;;;25.29;55.49;101745.97;5095383;28;20028;-67
2022/07/21 10:01:37;;;;;;;4.82;2.53;;;;;;;25.32;55.29;101737.63;5096133;28;20170;-67
2022/07/21 10:04:04;;;;;;;4.63;2.42;;;;;;;25.34;55.76;101748.16;5095996;28;20106;-67
2022/07/21 10:06:33;;;;;;;4.68;2.17;;;;;;;25.34;55.38;101746.34;5095398;28;20032;-68
2022/07/21 10:09:00;;;;;;;5.50;2.60;;;;;;;25.39;55.72;101755.69;5095738;28;20468;-68
2022/07/21 10:11:29;;;;;;;4.78;2.40;;;;;;;25.41;55.39;101756.41;5095719;28;20495;-68
2022/07/21 10:13:54;;;;;;;4.40;2.45;;;;;;;25.40;55.43;101763.56;5095230;28;20059;-65
2022/07/21 10:16:23;;;;;;;4.70;2.45;;;;;;;25.40;55.64;101760.06;5096324;28;20047;-65
2022/07/21 10:19:02;;;;;;;4.72;2.30;;;;;;;25.41;55.07;101767.91;5095734;28;20027;-69
2022/07/21 10:22:04;;;;;;;5.70;2.45;;;;;;;25.40;55.13;101771.56;5094972;28;20028;-71
2022/07/21 10:24:31;;;;;;;4.28;2.58;;;;;;;25.40;55.34;101765.41;5095446;28;20081;-66
2022/07/21 10:27:05;;;;;;;5.40;2.80;;;;;;;25.43;54.83;101773.09;5094582;28;20027;-67
2022/07/21 10:29:50;;;;;;;5.13;2.47;;;;;;;25.41;55.06;101770.59;5095633;28;20077;-66
2022/07/21 10:32:18;;;;;;;4.03;2.50;;;;;;;25.39;55.19;101780.56;5095086;28;20046;-66
2022/07/21 10:34:44;;;;;;;5.22;2.42;;;;;;;25.38;55.19;101781.56;5094953;28;20032;-64
2022/07/21 10:37:12;;;;;;;5.68;2.55;;;;;;;25.38;55.22;101778.06;5095354;28;20099;-65
2022/07/21 10:39:41;;;;;;;6.10;3.03;;;;;;;25.36;55.19;101783.53;5095514;28;20112;-65
2022/07/21 10:42:16;;;;;;;5.30;2.83;;;;;;;25.37;55.59;101787.03;5094277;28;20020;-65
2022/07/21 10:44:45;;;;;;;11.38;9.25;;;;;;;25.34;55.25;101789.03;5095240;28;20050;-66
2022/07/21 10:47:23;;;;;;;24.48;21.15;;;;;;;25.33;55.74;101789.19;5094967;28;20545;-66
2022/07/21 10:49:51;;;;;;;31.95;28.52;;;;;;;25.32;55.65;101790.16;5095458;28;20028;-66
2022/07/21 10:52:34;;;;;;;33.72;30.30;;;;;;;25.29;56.18;101787.78;5094834;28;20032;-64
2022/07/21 10:55:26;;;;;;;30.90;27.80;;;;;;;25.26;56.29;101788.06;5094194;28;20024;-65
2022/07/21 10:58:14;;;;;;;32.60;29.48;;;;;;;25.24;56.00;101796.19;5095323;28;20039;-65
2022/07/21 11:00:54;;;;;;;31.02;27.88;;;;;;;25.22;56.08;101797.34;5095120;28;20032;-65
2022/07/21 11:03:30;;;;;;;29.65;26.63;;;;;;;25.23;56.04;101796.34;5094139;28;20031;-65
2022/07/21 11:06:22;;;;;;;15.98;14.27;;;;;;;25.11;56.15;101801.06;5094659;28;20494;-65
2022/07/21 11:08:51;;;;;;;21.15;17.45;;;;;;;25.11;56.17;101798.38;5094200;28;20066;-65
2022/07/21 11:11:23;;;;;;;25.83;22.80;;;;;;;25.17;55.98;101798.63;5093554;28;20059;-65
2022/07/21 11:14:20;;;;;;;24.75;22.15;;;;;;;25.24;55.80;101801.53;5094645;28;20040;-66
2022/07/21 11:16:56;;;;;;;22.75;20.40;;;;;;;25.26;55.43;101798.72;5094053;28;20031;-64
2022/07/21 11:19:37;;;;;;;20.95;18.70;;;;;;;25.27;55.92;101809.25;5094750;28;20051;-66
2022/07/21 11:22:25;;;;;;;21.95;19.65;;;;;;;25.31;55.37;101804.47;5094403;28;20059;-66
2022/07/21 11:24:59;;;;;;;23.90;18.92;;;;;;;25.32;55.16;101806.16;5094514;28;20024;-66
2022/07/21 11:27:26;;;;;;;20.17;18.13;;;;;;;25.35;55.05;101819.22;5094634;28;20024;-66